sensor_id;sensor_type;location;lat;lon;timestamp;temperature;humidity
4002;DHT22;2015;48.670;9.060;2023-07-02T00:00:43;16.50;99.90
4002;DHT22;2015;48.670;9.060;2023-07-02T00:03:15;16.50;99.90
4002;DHT22;2015;48.670;9.060;2023-07-02T00:05:50;16.40;99.90
4002;DHT22;2015;48.670;9.060;2023-07-02T00:08:26;16.40;99.90
4002;DHT22;2015;48.670;9.060;2023-07-02T00:10:57;16.40;99.90
4002;DHT22;2015;48.670;9.060;2023-07-02T00:13:29;16.40;99.90
4002;DHT22;2015;48.670;9.060;2023-07-02T00:16:01;16.40;99.90
4002;DHT22;2015;48.670;9.060;2023-07-02T00:18:34;16.40;99.90
4002;DHT22;2015;48.670;9.060;2023-07-02T00:21:06;16.40;99.90
4002;DHT22;2015;48.670;9.060;2023-07-02T00:23:38;16.40;99.90
4002;DHT22;2015;48.670;9.060;2023-07-02T00:26:10;16.30;99.90
4002;DHT22;2015;48.670;9.060;2023-07-02T00:28:43;16.20;99.90
4002;DHT22;2015;48.670;9.060;2023-07-02T00:31:15;16.20;99.90
4002;DHT22;2015;48.670;9.060;2023-07-02T00:33:46;16.20;99.90
4002;DHT22;2015;48.670;9.060;2023-07-02T00:36:18;16.20;99.90
4002;DHT22;2015;48.670;9.060;2023-07-02T00:38:50;16.20;99.90
4002;DHT22;2015;48.670;9.060;2023-07-02T00:41:22;16.20;99.90
4002;DHT22;2015;48.670;9.060;2023-07-02T00:43:54;16.20;99.90
4002;DHT22;2015;48.670;9.060;2023-07-02T00:46:26;16.20;99.90
4002;DHT22;2015;48.670;9.060;2023-07-02T00:48:59;16.30;99.90
4002;DHT22;2015;48.670;9.060;2023-07-02T00:51:31;16.30;99.90
4002;DHT22;2015;48.670;9.060;2023-07-02T00:54:03;16.40;99.90
4002;DHT22;2015;48.670;9.060;2023-07-02T00:56:35;16.40;99.90
4002;DHT22;2015;48.670;9.060;2023-07-02T00:59:07;16.40;99.90
4002;DHT22;2015;48.670;9.060;2023-07-02T01:01:39;16.40;99.90
4002;DHT22;2015;48.670;9.060;2023-07-02T01:04:11;16.40;99.90
4002;DHT22;2015;48.670;9.060;2023-07-02T01:06:45;16.50;99.90
4002;DHT22;2015;48.670;9.060;2023-07-02T01:09:16;16.50;99.90
4002;DHT22;2015;48.670;9.060;2023-07-02T01:11:54;16.50;99.90
4002;DHT22;2015;48.670;9.060;2023-07-02T01:14:36;16.50;99.90
4002;DHT22;2015;48.670;9.060;2023-07-02T01:17:09;16.40;99.90
4002;DHT22;2015;48.670;9.060;2023-07-02T01:19:45;16.40;99.90
4002;DHT22;2015;48.670;9.060;2023-07-02T01:22:25;16.40;99.90
4002;DHT22;2015;48.670;9.060;2023-07-02T01:24:57;16.30;99.90
4002;DHT22;2015;48.670;9.060;2023-07-02T01:27:29;16.20;99.90
4002;DHT22;2015;48.670;9.060;2023-07-02T01:30:01;16.20;99.90
4002;DHT22;2015;48.670;9.060;2023-07-02T01:32:34;16.10;99.90
4002;DHT22;2015;48.670;9.060;2023-07-02T01:35:07;16.10;99.90
4002;DHT22;2015;48.670;9.060;2023-07-02T01:37:39;16.00;99.90
4002;DHT22;2015;48.670;9.060;2023-07-02T01:40:11;16.00;99.90
4002;DHT22;2015;48.670;9.060;2023-07-02T01:42:43;16.00;99.90
4002;DHT22;2015;48.670;9.060;2023-07-02T01:45:15;15.90;99.90
4002;DHT22;2015;48.670;9.060;2023-07-02T01:47:46;15.80;99.90
4002;DHT22;2015;48.670;9.060;2023-07-02T01:50:18;15.90;99.90
4002;DHT22;2015;48.670;9.060;2023-07-02T01:52:50;15.90;99.90
4002;DHT22;2015;48.670;9.060;2023-07-02T01:55:22;15.80;99.90
4002;DHT22;2015;48.670;9.060;2023-07-02T01:57:54;15.80;99.90
4002;DHT22;2015;48.670;9.060;2023-07-02T02:00:25;15.80;99.90
4002;DHT22;2015;48.670;9.060;2023-07-02T02:02:57;15.80;99.90
4002;DHT22;2015;48.670;9.060;2023-07-02T02:05:29;15.80;99.90
4002;DHT22;2015;48.670;9.060;2023-07-02T02:08:01;15.80;99.90
4002;DHT22;2015;48.670;9.060;2023-07-02T02:10:33;15.80;99.90
4002;DHT22;2015;48.670;9.060;2023-07-02T02:13:05;15.80;99.90
4002;DHT22;2015;48.670;9.060;2023-07-02T02:15:36;15.90;99.90
4002;DHT22;2015;48.670;9.060;2023-07-02T02:18:08;15.90;99.90
4002;DHT22;2015;48.670;9.060;2023-07-02T02:20:40;15.90;99.90
4002;DHT22;2015;48.670;9.060;2023-07-02T02:23:12;15.90;99.90
4002;DHT22;2015;48.670;9.060;2023-07-02T02:25:44;16.00;99.90
4002;DHT22;2015;48.670;9.060;2023-07-02T02:28:16;16.00;99.90
4002;DHT22;2015;48.670;9.060;2023-07-02T02:30:48;16.10;99.90
4002;DHT22;2015;48.670;9.060;2023-07-02T02:33:21;16.10;99.90
4002;DHT22;2015;48.670;9.060;2023-07-02T02:35:53;16.10;99.90
4002;DHT22;2015;48.670;9.060;2023-07-02T02:38:25;16.10;99.90
4002;DHT22;2015;48.670;9.060;2023-07-02T02:40:57;16.10;99.90
4002;DHT22;2015;48.670;9.060;2023-07-02T02:43:28;16.10;99.90
4002;DHT22;2015;48.670;9.060;2023-07-02T02:46:00;16.10;99.90
4002;DHT22;2015;48.670;9.060;2023-07-02T02:48:32;16.10;99.90
4002;DHT22;2015;48.670;9.060;2023-07-02T02:51:04;16.10;99.90
4002;DHT22;2015;48.670;9.060;2023-07-02T02:53:36;16.10;99.90
4002;DHT22;2015;48.670;9.060;2023-07-02T02:56:07;16.20;99.90
4002;DHT22;2015;48.670;9.060;2023-07-02T02:58:40;16.30;99.90
4002;DHT22;2015;48.670;9.060;2023-07-02T03:01:12;16.30;99.90
4002;DHT22;2015;48.670;9.060;2023-07-02T03:03:44;16.30;99.90
4002;DHT22;2015;48.670;9.060;2023-07-02T03:06:19;16.30;99.90
4002;DHT22;2015;48.670;9.060;2023-07-02T03:08:50;16.20;99.90
4002;DHT22;2015;48.670;9.060;2023-07-02T03:11:22;16.30;99.90
4002;DHT22;2015;48.670;9.060;2023-07-02T03:13:54;16.20;99.90
4002;DHT22;2015;48.670;9.060;2023-07-02T03:16:26;16.10;99.90
4002;DHT22;2015;48.670;9.060;2023-07-02T03:18:58;15.90;99.90
4002;DHT22;2015;48.670;9.060;2023-07-02T03:21:30;15.80;99.90
4002;DHT22;2015;48.670;9.060;2023-07-02T03:24:04;15.60;99.90
4002;DHT22;2015;48.670;9.060;2023-07-02T03:26:35;15.40;99.90
4002;DHT22;2015;48.670;9.060;2023-07-02T03:29:07;15.30;99.90
4002;DHT22;2015;48.670;9.060;2023-07-02T03:31:39;15.30;99.90
4002;DHT22;2015;48.670;9.060;2023-07-02T03:34:11;15.20;99.90
4002;DHT22;2015;48.670;9.060;2023-07-02T03:36:43;15.10;99.90
4002;DHT22;2015;48.670;9.060;2023-07-02T03:39:16;15.20;99.90
4002;DHT22;2015;48.670;9.060;2023-07-02T03:41:48;15.20;99.90
4002;DHT22;2015;48.670;9.060;2023-07-02T03:44:20;15.20;99.90
4002;DHT22;2015;48.670;9.060;2023-07-02T03:46:52;15.20;99.90
4002;DHT22;2015;48.670;9.060;2023-07-02T03:49:24;15.10;99.90
4002;DHT22;2015;48.670;9.060;2023-07-02T03:51:56;15.00;99.90
4002;DHT22;2015;48.670;9.060;2023-07-02T03:54:28;15.00;99.90
4002;DHT22;2015;48.670;9.060;2023-07-02T03:56:59;14.90;99.90
4002;DHT22;2015;48.670;9.060;2023-07-02T03:59:31;14.90;99.90
4002;DHT22;2015;48.670;9.060;2023-07-02T04:02:03;14.90;99.90
4002;DHT22;2015;48.670;9.060;2023-07-02T04:04:35;14.80;99.90
4002;DHT22;2015;48.670;9.060;2023-07-02T04:07:07;14.80;99.90
4002;DHT22;2015;48.670;9.060;2023-07-02T04:09:39;14.90;99.90
4002;DHT22;2015;48.670;9.060;2023-07-02T04:12:10;14.90;99.90
4002;DHT22;2015;48.670;9.060;2023-07-02T04:14:42;14.90;99.90
4002;DHT22;2015;48.670;9.060;2023-07-02T04:17:14;14.90;99.90
4002;DHT22;2015;48.670;9.060;2023-07-02T04:19:46;15.00;99.90
4002;DHT22;2015;48.670;9.060;2023-07-02T04:22:17;15.00;99.90
4002;DHT22;2015;48.670;9.060;2023-07-02T04:24:51;15.00;99.90
4002;DHT22;2015;48.670;9.060;2023-07-02T04:27:26;15.10;99.90
4002;DHT22;2015;48.670;9.060;2023-07-02T04:30:18;15.00;99.90
4002;DHT22;2015;48.670;9.060;2023-07-02T04:32:49;14.90;99.90
4002;DHT22;2015;48.670;9.060;2023-07-02T04:35:21;14.90;99.90
4002;DHT22;2015;48.670;9.060;2023-07-02T04:37:54;15.00;99.90
4002;DHT22;2015;48.670;9.060;2023-07-02T04:40:26;15.00;99.90
4002;DHT22;2015;48.670;9.060;2023-07-02T04:42:58;15.10;99.90
4002;DHT22;2015;48.670;9.060;2023-07-02T04:45:30;15.00;99.90
4002;DHT22;2015;48.670;9.060;2023-07-02T04:48:08;15.00;99.90
4002;DHT22;2015;48.670;9.060;2023-07-02T04:50:41;15.10;99.90
4002;DHT22;2015;48.670;9.060;2023-07-02T04:53:13;15.10;99.90
4002;DHT22;2015;48.670;9.060;2023-07-02T04:55:45;15.10;99.90
4002;DHT22;2015;48.670;9.060;2023-07-02T04:58:16;15.00;99.90
4002;DHT22;2015;48.670;9.060;2023-07-02T05:00:48;15.20;99.90
4002;DHT22;2015;48.670;9.060;2023-07-02T05:03:20;15.10;99.90
4002;DHT22;2015;48.670;9.060;2023-07-02T05:05:52;15.20;99.90
4002;DHT22;2015;48.670;9.060;2023-07-02T05:08:24;15.30;99.90
4002;DHT22;2015;48.670;9.060;2023-07-02T05:10:56;15.40;99.90
4002;DHT22;2015;48.670;9.060;2023-07-02T05:13:27;15.40;99.90
4002;DHT22;2015;48.670;9.060;2023-07-02T05:15:59;15.50;99.90
4002;DHT22;2015;48.670;9.060;2023-07-02T05:18:31;15.60;99.90
4002;DHT22;2015;48.670;9.060;2023-07-02T05:21:03;15.50;99.90
4002;DHT22;2015;48.670;9.060;2023-07-02T05:23:34;15.60;99.90
4002;DHT22;2015;48.670;9.060;2023-07-02T05:26:06;15.60;99.90
4002;DHT22;2015;48.670;9.060;2023-07-02T05:28:38;15.50;99.90
4002;DHT22;2015;48.670;9.060;2023-07-02T05:31:10;15.50;99.90
4002;DHT22;2015;48.670;9.060;2023-07-02T05:33:42;15.40;99.90
4002;DHT22;2015;48.670;9.060;2023-07-02T05:36:13;15.50;99.90
4002;DHT22;2015;48.670;9.060;2023-07-02T05:38:45;15.50;99.90
4002;DHT22;2015;48.670;9.060;2023-07-02T05:41:21;15.50;99.90
4002;DHT22;2015;48.670;9.060;2023-07-02T05:43:53;15.60;99.90
4002;DHT22;2015;48.670;9.060;2023-07-02T05:46:25;15.70;99.90
4002;DHT22;2015;48.670;9.060;2023-07-02T05:48:56;15.80;99.90
4002;DHT22;2015;48.670;9.060;2023-07-02T05:51:28;15.80;99.90
4002;DHT22;2015;48.670;9.060;2023-07-02T05:54:00;15.90;99.90
4002;DHT22;2015;48.670;9.060;2023-07-02T05:56:32;15.90;99.90
4002;DHT22;2015;48.670;9.060;2023-07-02T05:59:04;16.00;99.90
4002;DHT22;2015;48.670;9.060;2023-07-02T06:01:36;16.10;99.90
4002;DHT22;2015;48.670;9.060;2023-07-02T06:04:08;16.10;99.90
4002;DHT22;2015;48.670;9.060;2023-07-02T06:06:40;16.20;99.90
4002;DHT22;2015;48.670;9.060;2023-07-02T06:09:12;16.20;99.90
4002;DHT22;2015;48.670;9.060;2023-07-02T06:11:43;16.30;99.90
4002;DHT22;2015;48.670;9.060;2023-07-02T06:14:15;16.50;99.90
4002;DHT22;2015;48.670;9.060;2023-07-02T06:16:47;16.60;99.90
4002;DHT22;2015;48.670;9.060;2023-07-02T06:19:19;16.80;99.90
4002;DHT22;2015;48.670;9.060;2023-07-02T06:21:51;16.90;99.90
4002;DHT22;2015;48.670;9.060;2023-07-02T06:24:23;17.10;99.90
4002;DHT22;2015;48.670;9.060;2023-07-02T06:26:54;17.20;99.90
4002;DHT22;2015;48.670;9.060;2023-07-02T06:29:26;17.30;99.90
4002;DHT22;2015;48.670;9.060;2023-07-02T06:32:00;17.40;99.90
4002;DHT22;2015;48.670;9.060;2023-07-02T06:34:31;17.30;99.90
4002;DHT22;2015;48.670;9.060;2023-07-02T06:37:04;17.30;99.90
4002;DHT22;2015;48.670;9.060;2023-07-02T06:39:35;17.40;99.90
4002;DHT22;2015;48.670;9.060;2023-07-02T06:42:07;17.40;99.90
4002;DHT22;2015;48.670;9.060;2023-07-02T06:44:40;17.50;99.90
4002;DHT22;2015;48.670;9.060;2023-07-02T06:47:12;17.60;99.90
4002;DHT22;2015;48.670;9.060;2023-07-02T06:49:44;17.90;99.90
4002;DHT22;2015;48.670;9.060;2023-07-02T06:52:16;18.00;99.90
4002;DHT22;2015;48.670;9.060;2023-07-02T06:54:48;18.10;99.90
4002;DHT22;2015;48.670;9.060;2023-07-02T06:57:20;18.10;99.90
4002;DHT22;2015;48.670;9.060;2023-07-02T06:59:51;18.00;99.90
4002;DHT22;2015;48.670;9.060;2023-07-02T07:02:23;18.10;99.90
4002;DHT22;2015;48.670;9.060;2023-07-02T07:04:55;18.20;99.90
4002;DHT22;2015;48.670;9.060;2023-07-02T07:07:27;18.30;99.90
4002;DHT22;2015;48.670;9.060;2023-07-02T07:09:59;18.30;99.90
4002;DHT22;2015;48.670;9.060;2023-07-02T07:12:31;18.20;99.90
4002;DHT22;2015;48.670;9.060;2023-07-02T07:15:04;18.20;99.90
4002;DHT22;2015;48.670;9.060;2023-07-02T07:17:36;18.10;99.90
4002;DHT22;2015;48.670;9.060;2023-07-02T07:20:08;18.10;99.90
4002;DHT22;2015;48.670;9.060;2023-07-02T07:22:40;18.30;99.90
4002;DHT22;2015;48.670;9.060;2023-07-02T07:25:11;18.50;99.90
4002;DHT22;2015;48.670;9.060;2023-07-02T07:27:43;18.80;99.90
4002;DHT22;2015;48.670;9.060;2023-07-02T07:30:15;18.90;99.90
4002;DHT22;2015;48.670;9.060;2023-07-02T07:32:47;19.10;99.90
4002;DHT22;2015;48.670;9.060;2023-07-02T07:35:20;19.20;99.90
4002;DHT22;2015;48.670;9.060;2023-07-02T07:37:53;19.40;99.90
4002;DHT22;2015;48.670;9.060;2023-07-02T07:40:24;19.40;99.90
4002;DHT22;2015;48.670;9.060;2023-07-02T07:42:56;19.40;99.90
4002;DHT22;2015;48.670;9.060;2023-07-02T07:45:28;19.50;99.90
4002;DHT22;2015;48.670;9.060;2023-07-02T07:48:00;19.60;99.90
4002;DHT22;2015;48.670;9.060;2023-07-02T07:50:32;19.60;99.90
4002;DHT22;2015;48.670;9.060;2023-07-02T07:53:04;19.70;99.90
4002;DHT22;2015;48.670;9.060;2023-07-02T07:55:36;19.80;99.90
4002;DHT22;2015;48.670;9.060;2023-07-02T07:58:08;19.60;99.90
4002;DHT22;2015;48.670;9.060;2023-07-02T08:00:39;19.50;99.90
4002;DHT22;2015;48.670;9.060;2023-07-02T08:03:11;19.50;99.90
4002;DHT22;2015;48.670;9.060;2023-07-02T08:05:43;19.60;99.90
4002;DHT22;2015;48.670;9.060;2023-07-02T08:08:15;19.60;99.90
4002;DHT22;2015;48.670;9.060;2023-07-02T08:10:47;19.80;99.90
4002;DHT22;2015;48.670;9.060;2023-07-02T08:13:21;19.90;99.90
4002;DHT22;2015;48.670;9.060;2023-07-02T08:15:52;20.10;99.90
4002;DHT22;2015;48.670;9.060;2023-07-02T08:18:24;20.00;99.90
4002;DHT22;2015;48.670;9.060;2023-07-02T08:20:56;20.10;99.90
4002;DHT22;2015;48.670;9.060;2023-07-02T08:23:28;20.30;99.90
4002;DHT22;2015;48.670;9.060;2023-07-02T08:26:00;20.40;99.90
4002;DHT22;2015;48.670;9.060;2023-07-02T08:28:31;20.40;99.90
4002;DHT22;2015;48.670;9.060;2023-07-02T08:31:04;20.60;99.90
4002;DHT22;2015;48.670;9.060;2023-07-02T08:33:36;20.30;99.90
4002;DHT22;2015;48.670;9.060;2023-07-02T08:36:07;20.20;99.90
4002;DHT22;2015;48.670;9.060;2023-07-02T08:38:40;20.60;99.90
4002;DHT22;2015;48.670;9.060;2023-07-02T08:41:13;21.20;99.90
4002;DHT22;2015;48.670;9.060;2023-07-02T08:43:45;22.00;99.90
4002;DHT22;2015;48.670;9.060;2023-07-02T08:46:17;22.70;99.90
4002;DHT22;2015;48.670;9.060;2023-07-02T08:48:49;23.50;99.90
4002;DHT22;2015;48.670;9.060;2023-07-02T08:51:21;24.10;99.90
4002;DHT22;2015;48.670;9.060;2023-07-02T08:53:54;24.60;99.90
4002;DHT22;2015;48.670;9.060;2023-07-02T08:56:26;25.20;99.90
4002;DHT22;2015;48.670;9.060;2023-07-02T08:58:58;26.50;99.90
4002;DHT22;2015;48.670;9.060;2023-07-02T09:01:30;27.30;99.60
4002;DHT22;2015;48.670;9.060;2023-07-02T09:04:02;26.80;97.70
4002;DHT22;2015;48.670;9.060;2023-07-02T09:06:34;26.10;98.20
4002;DHT22;2015;48.670;9.060;2023-07-02T09:09:06;25.90;99.50
4002;DHT22;2015;48.670;9.060;2023-07-02T09:11:48;25.90;98.60
4002;DHT22;2015;48.670;9.060;2023-07-02T09:14:24;25.30;98.60
4002;DHT22;2015;48.670;9.060;2023-07-02T09:17:08;25.50;99.20
4002;DHT22;2015;48.670;9.060;2023-07-02T09:19:51;25.30;98.80
4002;DHT22;2015;48.670;9.060;2023-07-02T09:22:23;24.90;99.50
4002;DHT22;2015;48.670;9.060;2023-07-02T09:24:57;24.50;99.70
4002;DHT22;2015;48.670;9.060;2023-07-02T09:27:40;24.40;99.90
4002;DHT22;2015;48.670;9.060;2023-07-02T09:30:14;25.20;99.90
4002;DHT22;2015;48.670;9.060;2023-07-02T09:32:49;26.30;99.20
4002;DHT22;2015;48.670;9.060;2023-07-02T09:35:22;27.30;97.10
4002;DHT22;2015;48.670;9.060;2023-07-02T09:37:53;28.10;95.50
4002;DHT22;2015;48.670;9.060;2023-07-02T09:40:25;28.60;94.10
4002;DHT22;2015;48.670;9.060;2023-07-02T09:43:00;28.40;93.70
4002;DHT22;2015;48.670;9.060;2023-07-02T09:45:32;27.10;94.30
4002;DHT22;2015;48.670;9.060;2023-07-02T09:48:06;26.00;96.40
4002;DHT22;2015;48.670;9.060;2023-07-02T09:50:38;26.20;97.60
4002;DHT22;2015;48.670;9.060;2023-07-02T09:53:11;26.50;95.30
4002;DHT22;2015;48.670;9.060;2023-07-02T09:55:43;27.30;95.10
4002;DHT22;2015;48.670;9.060;2023-07-02T09:58:16;27.50;93.80
4002;DHT22;2015;48.670;9.060;2023-07-02T10:00:48;28.20;93.70
4002;DHT22;2015;48.670;9.060;2023-07-02T10:03:29;29.40;89.40
4002;DHT22;2015;48.670;9.060;2023-07-02T10:06:07;29.50;86.00
4002;DHT22;2015;48.670;9.060;2023-07-02T10:08:39;29.20;84.70
4002;DHT22;2015;48.670;9.060;2023-07-02T10:11:11;29.10;83.70
4002;DHT22;2015;48.670;9.060;2023-07-02T10:13:44;28.10;86.70
4002;DHT22;2015;48.670;9.060;2023-07-02T10:16:16;28.50;88.50
4002;DHT22;2015;48.670;9.060;2023-07-02T10:18:48;29.40;85.50
4002;DHT22;2015;48.670;9.060;2023-07-02T10:21:20;29.80;82.00
4002;DHT22;2015;48.670;9.060;2023-07-02T10:23:52;29.90;81.60
4002;DHT22;2015;48.670;9.060;2023-07-02T10:26:23;30.70;82.70
4002;DHT22;2015;48.670;9.060;2023-07-02T10:28:59;31.30;76.30
4002;DHT22;2015;48.670;9.060;2023-07-02T10:31:31;30.20;78.20
4002;DHT22;2015;48.670;9.060;2023-07-02T10:34:02;29.50;79.10
4002;DHT22;2015;48.670;9.060;2023-07-02T10:36:34;29.80;79.40
4002;DHT22;2015;48.670;9.060;2023-07-02T10:39:06;30.40;80.00
4002;DHT22;2015;48.670;9.060;2023-07-02T10:41:38;30.60;75.80
4002;DHT22;2015;48.670;9.060;2023-07-02T10:44:10;30.60;76.10
4002;DHT22;2015;48.670;9.060;2023-07-02T10:46:46;30.90;75.50
4002;DHT22;2015;48.670;9.060;2023-07-02T10:49:18;30.50;73.20
4002;DHT22;2015;48.670;9.060;2023-07-02T10:51:59;31.20;73.90
4002;DHT22;2015;48.670;9.060;2023-07-02T10:54:45;31.30;73.50
4002;DHT22;2015;48.670;9.060;2023-07-02T10:57:18;31.50;69.80
4002;DHT22;2015;48.670;9.060;2023-07-02T11:00:06;31.20;71.60
4002;DHT22;2015;48.670;9.060;2023-07-02T11:02:40;31.00;72.50
4002;DHT22;2015;48.670;9.060;2023-07-02T11:05:12;31.10;72.50
4002;DHT22;2015;48.670;9.060;2023-07-02T11:07:45;31.30;72.30
4002;DHT22;2015;48.670;9.060;2023-07-02T11:10:18;31.50;71.70
4002;DHT22;2015;48.670;9.060;2023-07-02T11:12:50;31.20;69.60
4002;DHT22;2015;48.670;9.060;2023-07-02T11:15:22;30.90;69.30
4002;DHT22;2015;48.670;9.060;2023-07-02T11:17:54;31.70;70.00
4002;DHT22;2015;48.670;9.060;2023-07-02T11:20:33;32.30;67.60
4002;DHT22;2015;48.670;9.060;2023-07-02T11:23:16;31.50;66.80
4002;DHT22;2015;48.670;9.060;2023-07-02T11:26:14;31.10;69.40
4002;DHT22;2015;48.670;9.060;2023-07-02T11:28:49;30.60;72.60
4002;DHT22;2015;48.670;9.060;2023-07-02T11:31:25;29.00;71.60
4002;DHT22;2015;48.670;9.060;2023-07-02T11:34:00;28.30;74.70
4002;DHT22;2015;48.670;9.060;2023-07-02T11:36:32;27.70;72.20
4002;DHT22;2015;48.670;9.060;2023-07-02T11:39:04;26.70;75.40
4002;DHT22;2015;48.670;9.060;2023-07-02T11:41:44;26.20;78.50
4002;DHT22;2015;48.670;9.060;2023-07-02T11:44:17;26.20;75.70
4002;DHT22;2015;48.670;9.060;2023-07-02T11:46:49;26.20;79.70
4002;DHT22;2015;48.670;9.060;2023-07-02T11:49:21;26.00;76.50
4002;DHT22;2015;48.670;9.060;2023-07-02T11:51:53;25.80;78.70
4002;DHT22;2015;48.670;9.060;2023-07-02T11:54:25;25.80;79.40
4002;DHT22;2015;48.670;9.060;2023-07-02T11:56:57;25.70;78.60
4002;DHT22;2015;48.670;9.060;2023-07-02T11:59:28;25.60;79.10
4002;DHT22;2015;48.670;9.060;2023-07-02T12:02:00;25.60;78.50
4002;DHT22;2015;48.670;9.060;2023-07-02T12:04:32;25.40;79.50
4002;DHT22;2015;48.670;9.060;2023-07-02T12:07:04;25.20;80.40
4002;DHT22;2015;48.670;9.060;2023-07-02T12:09:36;25.10;80.70
4002;DHT22;2015;48.670;9.060;2023-07-02T12:12:08;25.00;79.30
4002;DHT22;2015;48.670;9.060;2023-07-02T12:14:41;25.00;79.50
4002;DHT22;2015;48.670;9.060;2023-07-02T12:17:14;25.10;80.30
4002;DHT22;2015;48.670;9.060;2023-07-02T12:19:47;25.20;81.10
4002;DHT22;2015;48.670;9.060;2023-07-02T12:22:18;25.00;79.40
4002;DHT22;2015;48.670;9.060;2023-07-02T12:24:53;24.90;81.00
4002;DHT22;2015;48.670;9.060;2023-07-02T12:27:27;24.70;79.70
4002;DHT22;2015;48.670;9.060;2023-07-02T12:29:59;24.60;79.90
4002;DHT22;2015;48.670;9.060;2023-07-02T12:32:31;24.50;80.60
4002;DHT22;2015;48.670;9.060;2023-07-02T12:35:03;24.60;82.20
4002;DHT22;2015;48.670;9.060;2023-07-02T12:37:35;24.70;81.80
4002;DHT22;2015;48.670;9.060;2023-07-02T12:40:07;24.80;80.20
4002;DHT22;2015;48.670;9.060;2023-07-02T12:42:42;24.70;80.30
4002;DHT22;2015;48.670;9.060;2023-07-02T12:45:14;24.70;81.80
4002;DHT22;2015;48.670;9.060;2023-07-02T12:47:50;24.50;81.00
4002;DHT22;2015;48.670;9.060;2023-07-02T12:50:22;24.60;81.70
4002;DHT22;2015;48.670;9.060;2023-07-02T12:52:54;24.70;79.10
4002;DHT22;2015;48.670;9.060;2023-07-02T12:55:26;24.80;78.70
4002;DHT22;2015;48.670;9.060;2023-07-02T12:57:57;24.70;78.40
4002;DHT22;2015;48.670;9.060;2023-07-02T13:00:29;24.60;79.30
4002;DHT22;2015;48.670;9.060;2023-07-02T13:03:01;24.70;81.40
4002;DHT22;2015;48.670;9.060;2023-07-02T13:05:36;24.60;77.90
4002;DHT22;2015;48.670;9.060;2023-07-02T13:08:09;24.60;80.40
4002;DHT22;2015;48.670;9.060;2023-07-02T13:10:41;24.60;78.20
4002;DHT22;2015;48.670;9.060;2023-07-02T13:13:13;24.50;77.00
4002;DHT22;2015;48.670;9.060;2023-07-02T13:15:54;24.50;76.90
4002;DHT22;2015;48.670;9.060;2023-07-02T13:18:26;24.40;79.50
4002;DHT22;2015;48.670;9.060;2023-07-02T13:20:58;24.50;77.60
4002;DHT22;2015;48.670;9.060;2023-07-02T13:23:29;24.70;77.70
4002;DHT22;2015;48.670;9.060;2023-07-02T13:26:01;24.90;76.30
4002;DHT22;2015;48.670;9.060;2023-07-02T13:28:33;24.90;75.00
4002;DHT22;2015;48.670;9.060;2023-07-02T13:31:05;24.70;75.10
4002;DHT22;2015;48.670;9.060;2023-07-02T13:33:36;24.80;77.60
4002;DHT22;2015;48.670;9.060;2023-07-02T13:36:10;24.90;76.20
4002;DHT22;2015;48.670;9.060;2023-07-02T13:38:42;24.80;77.00
4002;DHT22;2015;48.670;9.060;2023-07-02T13:41:14;24.60;77.20
4002;DHT22;2015;48.670;9.060;2023-07-02T13:43:46;24.70;76.90
4002;DHT22;2015;48.670;9.060;2023-07-02T13:46:18;24.90;77.80
4002;DHT22;2015;48.670;9.060;2023-07-02T13:48:49;24.70;76.10
4002;DHT22;2015;48.670;9.060;2023-07-02T13:51:21;24.60;77.40
4002;DHT22;2015;48.670;9.060;2023-07-02T13:53:53;24.50;76.70
4002;DHT22;2015;48.670;9.060;2023-07-02T13:56:25;24.70;77.90
4002;DHT22;2015;48.670;9.060;2023-07-02T14:01:29;24.70;78.10
4002;DHT22;2015;48.670;9.060;2023-07-02T14:04:02;24.80;77.30
4002;DHT22;2015;48.670;9.060;2023-07-02T14:06:34;24.90;77.40
4002;DHT22;2015;48.670;9.060;2023-07-02T14:09:06;24.90;77.40
4002;DHT22;2015;48.670;9.060;2023-07-02T14:11:39;25.00;78.10
4002;DHT22;2015;48.670;9.060;2023-07-02T14:14:12;25.00;77.60
4002;DHT22;2015;48.670;9.060;2023-07-02T14:16:43;24.80;77.90
4002;DHT22;2015;48.670;9.060;2023-07-02T14:19:15;24.90;77.80
4002;DHT22;2015;48.670;9.060;2023-07-02T14:21:48;24.90;79.90
4002;DHT22;2015;48.670;9.060;2023-07-02T14:24:20;25.00;78.90
4002;DHT22;2015;48.670;9.060;2023-07-02T14:26:52;24.90;78.90
4002;DHT22;2015;48.670;9.060;2023-07-02T14:29:24;24.90;79.00
4002;DHT22;2015;48.670;9.060;2023-07-02T14:31:58;24.80;81.50
4002;DHT22;2015;48.670;9.060;2023-07-02T14:34:30;24.80;80.20
4002;DHT22;2015;48.670;9.060;2023-07-02T14:37:03;24.50;80.60
4002;DHT22;2015;48.670;9.060;2023-07-02T14:39:35;24.30;80.90
4002;DHT22;2015;48.670;9.060;2023-07-02T14:42:07;24.30;80.30
4002;DHT22;2015;48.670;9.060;2023-07-02T14:44:39;24.30;80.50
4002;DHT22;2015;48.670;9.060;2023-07-02T14:47:10;24.30;80.20
4002;DHT22;2015;48.670;9.060;2023-07-02T14:49:42;24.30;81.60
4002;DHT22;2015;48.670;9.060;2023-07-02T14:52:14;24.20;83.10
4002;DHT22;2015;48.670;9.060;2023-07-02T14:54:46;24.30;82.40
4002;DHT22;2015;48.670;9.060;2023-07-02T14:57:18;24.40;82.90
4002;DHT22;2015;48.670;9.060;2023-07-02T14:59:50;24.50;82.00
4002;DHT22;2015;48.670;9.060;2023-07-02T15:02:23;24.60;81.60
4002;DHT22;2015;48.670;9.060;2023-07-02T15:04:54;24.40;81.00
4002;DHT22;2015;48.670;9.060;2023-07-02T15:07:27;24.30;81.40
4002;DHT22;2015;48.670;9.060;2023-07-02T15:09:58;24.30;82.70
4002;DHT22;2015;48.670;9.060;2023-07-02T15:12:30;24.60;82.10
4002;DHT22;2015;48.670;9.060;2023-07-02T15:15:02;24.70;80.20
4002;DHT22;2015;48.670;9.060;2023-07-02T15:17:34;24.60;81.30
4002;DHT22;2015;48.670;9.060;2023-07-02T15:20:06;24.60;82.40
4002;DHT22;2015;48.670;9.060;2023-07-02T15:22:38;24.40;81.50
4002;DHT22;2015;48.670;9.060;2023-07-02T15:25:10;24.30;82.10
4002;DHT22;2015;48.670;9.060;2023-07-02T15:27:41;24.20;82.10
4002;DHT22;2015;48.670;9.060;2023-07-02T15:30:13;24.20;82.40
4002;DHT22;2015;48.670;9.060;2023-07-02T15:32:45;24.10;81.70
4002;DHT22;2015;48.670;9.060;2023-07-02T15:35:17;24.00;83.00
4002;DHT22;2015;48.670;9.060;2023-07-02T15:37:49;24.00;83.80
4002;DHT22;2015;48.670;9.060;2023-07-02T15:40:21;23.90;82.20
4002;DHT22;2015;48.670;9.060;2023-07-02T15:42:53;23.90;81.80
4002;DHT22;2015;48.670;9.060;2023-07-02T15:45:24;23.80;82.00
4002;DHT22;2015;48.670;9.060;2023-07-02T15:47:56;23.70;83.70
4002;DHT22;2015;48.670;9.060;2023-07-02T15:50:28;23.50;83.60
4002;DHT22;2015;48.670;9.060;2023-07-02T15:53:00;23.60;83.10
4002;DHT22;2015;48.670;9.060;2023-07-02T15:55:34;23.60;84.10
4002;DHT22;2015;48.670;9.060;2023-07-02T15:58:07;23.40;85.00
4002;DHT22;2015;48.670;9.060;2023-07-02T16:00:39;23.40;84.60
4002;DHT22;2015;48.670;9.060;2023-07-02T16:03:11;23.40;84.60
4002;DHT22;2015;48.670;9.060;2023-07-02T16:05:43;23.30;85.50
4002;DHT22;2015;48.670;9.060;2023-07-02T16:08:15;23.30;84.20
4002;DHT22;2015;48.670;9.060;2023-07-02T16:10:47;23.30;84.80
4002;DHT22;2015;48.670;9.060;2023-07-02T16:13:19;23.30;84.60
4002;DHT22;2015;48.670;9.060;2023-07-02T16:15:50;23.20;83.30
4002;DHT22;2015;48.670;9.060;2023-07-02T16:18:23;23.20;84.00
4002;DHT22;2015;48.670;9.060;2023-07-02T16:20:56;23.20;85.60
4002;DHT22;2015;48.670;9.060;2023-07-02T16:23:28;23.20;85.20
4002;DHT22;2015;48.670;9.060;2023-07-02T16:26:03;23.20;86.50
4002;DHT22;2015;48.670;9.060;2023-07-02T16:28:36;23.10;85.10
4002;DHT22;2015;48.670;9.060;2023-07-02T16:31:09;23.00;83.70
4002;DHT22;2015;48.670;9.060;2023-07-02T16:33:41;22.90;85.30
4002;DHT22;2015;48.670;9.060;2023-07-02T16:36:13;22.90;84.60
4002;DHT22;2015;48.670;9.060;2023-07-02T16:38:47;23.00;85.00